sensor_id;sensor_type;location;lat;lon;timestamp;P1;durP1;ratioP1;P2;durP2;ratioP2
19828;SDS011;10075;50.924;4.396;2023-03-15T00:01:58;15.23;;;8.47;;
19828;SDS011;10075;50.924;4.396;2023-03-15T00:04:26;13.53;;;7.40;;
19828;SDS011;10075;50.924;4.396;2023-03-15T00:06:53;16.93;;;7.90;;
19828;SDS011;10075;50.924;4.396;2023-03-15T00:09:20;11.30;;;7.57;;
19828;SDS011;10075;50.924;4.396;2023-03-15T00:11:48;18.77;;;8.60;;
19828;SDS011;10075;50.924;4.396;2023-03-15T00:14:15;14.73;;;8.00;;
19828;SDS011;10075;50.924;4.396;2023-03-15T00:16:42;14.50;;;7.33;;
19828;SDS011;10075;50.924;4.396;2023-03-15T00:19:11;23.40;;;10.03;;
19828;SDS011;10075;50.924;4.396;2023-03-15T00:21:38;17.67;;;8.13;;
19828;SDS011;10075;50.924;4.396;2023-03-15T00:24:07;17.40;;;7.50;;
19828;SDS011;10075;50.924;4.396;2023-03-15T00:26:35;19.30;;;7.93;;
19828;SDS011;10075;50.924;4.396;2023-03-15T00:29:03;14.63;;;7.60;;
19828;SDS011;10075;50.924;4.396;2023-03-15T00:31:30;17.97;;;8.43;;
19828;SDS011;10075;50.924;4.396;2023-03-15T00:33:57;22.50;;;8.60;;
19828;SDS011;10075;50.924;4.396;2023-03-15T00:36:25;15.23;;;8.37;;
19828;SDS011;10075;50.924;4.396;2023-03-15T00:38:53;14.37;;;8.17;;
19828;SDS011;10075;50.924;4.396;2023-03-15T00:41:22;16.83;;;8.60;;
19828;SDS011;10075;50.924;4.396;2023-03-15T00:43:49;14.13;;;8.43;;
19828;SDS011;10075;50.924;4.396;2023-03-15T00:46:17;17.43;;;7.23;;
19828;SDS011;10075;50.924;4.396;2023-03-15T00:48:46;17.13;;;7.33;;
19828;SDS011;10075;50.924;4.396;2023-03-15T00:51:15;15.60;;;7.90;;
19828;SDS011;10075;50.924;4.396;2023-03-15T00:53:45;15.60;;;6.00;;
19828;SDS011;10075;50.924;4.396;2023-03-15T00:56:14;18.80;;;7.13;;
19828;SDS011;10075;50.924;4.396;2023-03-15T00:58:43;12.90;;;6.63;;
19828;SDS011;10075;50.924;4.396;2023-03-15T01:01:10;13.77;;;6.10;;
19828;SDS011;10075;50.924;4.396;2023-03-15T01:03:39;12.03;;;5.73;;
19828;SDS011;10075;50.924;4.396;2023-03-15T01:06:10;17.33;;;4.80;;
19828;SDS011;10075;50.924;4.396;2023-03-15T01:08:38;14.80;;;4.93;;
19828;SDS011;10075;50.924;4.396;2023-03-15T01:11:08;14.60;;;5.17;;
19828;SDS011;10075;50.924;4.396;2023-03-15T01:13:38;13.80;;;4.60;;
19828;SDS011;10075;50.924;4.396;2023-03-15T01:16:05;9.60;;;3.80;;
19828;SDS011;10075;50.924;4.396;2023-03-15T01:18:34;10.63;;;3.97;;
19828;SDS011;10075;50.924;4.396;2023-03-15T01:21:01;11.13;;;3.17;;
19828;SDS011;10075;50.924;4.396;2023-03-15T01:23:31;6.47;;;2.53;;
19828;SDS011;10075;50.924;4.396;2023-03-15T01:25:58;5.40;;;2.40;;
19828;SDS011;10075;50.924;4.396;2023-03-15T01:28:27;4.20;;;1.97;;
19828;SDS011;10075;50.924;4.396;2023-03-15T01:30:55;4.00;;;2.10;;
19828;SDS011;10075;50.924;4.396;2023-03-15T01:33:22;4.37;;;1.63;;
19828;SDS011;10075;50.924;4.396;2023-03-15T01:35:56;3.07;;;1.60;;
19828;SDS011;10075;50.924;4.396;2023-03-15T01:38:25;3.90;;;1.70;;
19828;SDS011;10075;50.924;4.396;2023-03-15T01:40:52;4.73;;;1.70;;
19828;SDS011;10075;50.924;4.396;2023-03-15T01:43:19;3.83;;;1.40;;
19828;SDS011;10075;50.924;4.396;2023-03-15T01:45:51;5.27;;;1.53;;
19828;SDS011;10075;50.924;4.396;2023-03-15T01:48:22;4.47;;;1.63;;
19828;SDS011;10075;50.924;4.396;2023-03-15T01:50:53;6.33;;;1.43;;
19828;SDS011;10075;50.924;4.396;2023-03-15T01:53:21;5.30;;;1.60;;
19828;SDS011;10075;50.924;4.396;2023-03-15T01:55:49;4.60;;;1.40;;
19828;SDS011;10075;50.924;4.396;2023-03-15T01:58:17;3.43;;;1.60;;
19828;SDS011;10075;50.924;4.396;2023-03-15T02:00:45;2.90;;;1.67;;
19828;SDS011;10075;50.924;4.396;2023-03-15T02:03:14;4.60;;;1.83;;
19828;SDS011;10075;50.924;4.396;2023-03-15T02:05:46;4.73;;;1.87;;
19828;SDS011;10075;50.924;4.396;2023-03-15T02:08:18;4.00;;;2.03;;
19828;SDS011;10075;50.924;4.396;2023-03-15T02:10:48;5.70;;;1.97;;
19828;SDS011;10075;50.924;4.396;2023-03-15T02:13:19;10.10;;;2.17;;
19828;SDS011;10075;50.924;4.396;2023-03-15T02:15:48;4.37;;;2.23;;
19828;SDS011;10075;50.924;4.396;2023-03-15T02:18:19;4.43;;;1.93;;
19828;SDS011;10075;50.924;4.396;2023-03-15T02:20:47;7.30;;;2.63;;
19828;SDS011;10075;50.924;4.396;2023-03-15T02:23:21;5.10;;;2.20;;
19828;SDS011;10075;50.924;4.396;2023-03-15T02:25:49;9.40;;;2.40;;
19828;SDS011;10075;50.924;4.396;2023-03-15T02:28:23;6.07;;;2.20;;
19828;SDS011;10075;50.924;4.396;2023-03-15T02:30:50;7.83;;;2.27;;
19828;SDS011;10075;50.924;4.396;2023-03-15T02:33:19;4.80;;;2.00;;
19828;SDS011;10075;50.924;4.396;2023-03-15T02:35:49;7.73;;;2.07;;
19828;SDS011;10075;50.924;4.396;2023-03-15T02:38:16;4.60;;;2.20;;
19828;SDS011;10075;50.924;4.396;2023-03-15T02:40:43;7.33;;;2.30;;
19828;SDS011;10075;50.924;4.396;2023-03-15T02:43:13;5.80;;;1.97;;
19828;SDS011;10075;50.924;4.396;2023-03-15T02:45:43;9.97;;;2.37;;
19828;SDS011;10075;50.924;4.396;2023-03-15T02:48:13;7.17;;;2.30;;
19828;SDS011;10075;50.924;4.396;2023-03-15T02:50:40;7.60;;;2.60;;
19828;SDS011;10075;50.924;4.396;2023-03-15T02:53:07;6.90;;;2.47;;
19828;SDS011;10075;50.924;4.396;2023-03-15T02:55:36;7.73;;;2.77;;
19828;SDS011;10075;50.924;4.396;2023-03-15T02:58:03;5.13;;;2.53;;
19828;SDS011;10075;50.924;4.396;2023-03-15T03:00:30;6.50;;;2.63;;
19828;SDS011;10075;50.924;4.396;2023-03-15T03:02:59;9.17;;;2.83;;
19828;SDS011;10075;50.924;4.396;2023-03-15T03:05:26;7.63;;;2.40;;
19828;SDS011;10075;50.924;4.396;2023-03-15T03:07:53;8.07;;;2.80;;
19828;SDS011;10075;50.924;4.396;2023-03-15T03:10:20;7.33;;;2.40;;
19828;SDS011;10075;50.924;4.396;2023-03-15T03:12:48;6.10;;;2.33;;
19828;SDS011;10075;50.924;4.396;2023-03-15T03:15:17;6.20;;;2.80;;
19828;SDS011;10075;50.924;4.396;2023-03-15T03:17:44;7.27;;;3.00;;
19828;SDS011;10075;50.924;4.396;2023-03-15T03:20:13;7.67;;;2.63;;
19828;SDS011;10075;50.924;4.396;2023-03-15T03:22:41;5.67;;;2.87;;
19828;SDS011;10075;50.924;4.396;2023-03-15T03:25:09;11.00;;;3.47;;
19828;SDS011;10075;50.924;4.396;2023-03-15T03:27:37;9.53;;;3.30;;
19828;SDS011;10075;50.924;4.396;2023-03-15T03:30:05;8.13;;;2.97;;
19828;SDS011;10075;50.924;4.396;2023-03-15T03:32:34;5.33;;;2.77;;
19828;SDS011;10075;50.924;4.396;2023-03-15T03:35:01;9.07;;;3.63;;
19828;SDS011;10075;50.924;4.396;2023-03-15T03:37:30;9.70;;;4.07;;
19828;SDS011;10075;50.924;4.396;2023-03-15T03:39:57;8.47;;;3.70;;
19828;SDS011;10075;50.924;4.396;2023-03-15T03:42:24;8.77;;;3.73;;
19828;SDS011;10075;50.924;4.396;2023-03-15T03:44:51;9.17;;;3.97;;
19828;SDS011;10075;50.924;4.396;2023-03-15T03:47:18;10.23;;;4.70;;
19828;SDS011;10075;50.924;4.396;2023-03-15T03:49:45;7.43;;;3.97;;
19828;SDS011;10075;50.924;4.396;2023-03-15T03:52:12;9.83;;;4.67;;
19828;SDS011;10075;50.924;4.396;2023-03-15T03:54:41;11.43;;;4.73;;
19828;SDS011;10075;50.924;4.396;2023-03-15T03:57:08;10.63;;;4.10;;
19828;SDS011;10075;50.924;4.396;2023-03-15T03:59:36;10.13;;;4.63;;
19828;SDS011;10075;50.924;4.396;2023-03-15T04:02:03;8.27;;;4.30;;
19828;SDS011;10075;50.924;4.396;2023-03-15T04:04:30;8.30;;;4.30;;
19828;SDS011;10075;50.924;4.396;2023-03-15T04:06:57;9.83;;;4.90;;
19828;SDS011;10075;50.924;4.396;2023-03-15T04:09:24;17.23;;;5.60;;
19828;SDS011;10075;50.924;4.396;2023-03-15T04:11:52;8.07;;;5.37;;
19828;SDS011;10075;50.924;4.396;2023-03-15T04:14:19;11.33;;;6.20;;
19828;SDS011;10075;50.924;4.396;2023-03-15T04:16:46;8.17;;;5.80;;
19828;SDS011;10075;50.924;4.396;2023-03-15T04:19:13;14.17;;;6.23;;
19828;SDS011;10075;50.924;4.396;2023-03-15T04:21:40;14.70;;;6.67;;
19828;SDS011;10075;50.924;4.396;2023-03-15T04:24:11;13.87;;;6.40;;
19828;SDS011;10075;50.924;4.396;2023-03-15T04:26:39;10.53;;;6.60;;
19828;SDS011;10075;50.924;4.396;2023-03-15T04:29:08;13.17;;;6.30;;
19828;SDS011;10075;50.924;4.396;2023-03-15T04:31:36;13.57;;;6.60;;
19828;SDS011;10075;50.924;4.396;2023-03-15T04:34:03;11.13;;;6.07;;
19828;SDS011;10075;50.924;4.396;2023-03-15T04:36:30;15.13;;;7.50;;
19828;SDS011;10075;50.924;4.396;2023-03-15T04:38:57;15.23;;;7.03;;
19828;SDS011;10075;50.924;4.396;2023-03-15T04:41:28;14.17;;;7.30;;
19828;SDS011;10075;50.924;4.396;2023-03-15T04:43:55;11.90;;;6.50;;
19828;SDS011;10075;50.924;4.396;2023-03-15T04:46:24;12.73;;;7.33;;
19828;SDS011;10075;50.924;4.396;2023-03-15T04:48:51;9.50;;;7.00;;
19828;SDS011;10075;50.924;4.396;2023-03-15T04:51:18;12.00;;;6.90;;
19828;SDS011;10075;50.924;4.396;2023-03-15T04:53:44;14.47;;;7.87;;
19828;SDS011;10075;50.924;4.396;2023-03-15T04:56:11;17.47;;;8.03;;
19828;SDS011;10075;50.924;4.396;2023-03-15T04:58:39;13.73;;;8.37;;
19828;SDS011;10075;50.924;4.396;2023-03-15T05:01:05;15.10;;;8.93;;
19828;SDS011;10075;50.924;4.396;2023-03-15T05:03:34;14.70;;;8.97;;
19828;SDS011;10075;50.924;4.396;2023-03-15T05:06:01;18.60;;;9.50;;
19828;SDS011;10075;50.924;4.396;2023-03-15T05:08:32;17.70;;;9.37;;
19828;SDS011;10075;50.924;4.396;2023-03-15T05:10:59;18.07;;;9.23;;
19828;SDS011;10075;50.924;4.396;2023-03-15T05:13:27;23.00;;;9.30;;
19828;SDS011;10075;50.924;4.396;2023-03-15T05:15:54;20.53;;;8.93;;
19828;SDS011;10075;50.924;4.396;2023-03-15T05:18:21;15.27;;;9.80;;
19828;SDS011;10075;50.924;4.396;2023-03-15T05:20:49;20.30;;;9.77;;
19828;SDS011;10075;50.924;4.396;2023-03-15T05:23:16;17.43;;;10.23;;
19828;SDS011;10075;50.924;4.396;2023-03-15T05:25:48;18.93;;;10.10;;
19828;SDS011;10075;50.924;4.396;2023-03-15T05:28:18;17.67;;;10.10;;
19828;SDS011;10075;50.924;4.396;2023-03-15T05:30:45;20.30;;;11.60;;
19828;SDS011;10075;50.924;4.396;2023-03-15T05:33:12;25.17;;;11.70;;
19828;SDS011;10075;50.924;4.396;2023-03-15T05:35:39;17.43;;;10.33;;
19828;SDS011;10075;50.924;4.396;2023-03-15T05:38:09;21.13;;;11.53;;
19828;SDS011;10075;50.924;4.396;2023-03-15T05:40:38;20.03;;;11.47;;
19828;SDS011;10075;50.924;4.396;2023-03-15T05:43:06;23.43;;;11.67;;
19828;SDS011;10075;50.924;4.396;2023-03-15T05:45:33;18.80;;;11.43;;
19828;SDS011;10075;50.924;4.396;2023-03-15T05:48:00;26.43;;;11.97;;
19828;SDS011;10075;50.924;4.396;2023-03-15T05:50:27;23.43;;;11.30;;
19828;SDS011;10075;50.924;4.396;2023-03-15T05:52:54;18.70;;;10.97;;
19828;SDS011;10075;50.924;4.396;2023-03-15T05:55:23;22.47;;;12.20;;
19828;SDS011;10075;50.924;4.396;2023-03-15T05:57:51;22.87;;;11.90;;
19828;SDS011;10075;50.924;4.396;2023-03-15T06:00:18;22.67;;;11.73;;
19828;SDS011;10075;50.924;4.396;2023-03-15T06:02:45;24.13;;;12.20;;
19828;SDS011;10075;50.924;4.396;2023-03-15T06:05:12;27.97;;;11.83;;
19828;SDS011;10075;50.924;4.396;2023-03-15T06:07:40;23.33;;;12.13;;
19828;SDS011;10075;50.924;4.396;2023-03-15T06:10:07;20.13;;;12.77;;
19828;SDS011;10075;50.924;4.396;2023-03-15T06:12:38;24.33;;;13.57;;
19828;SDS011;10075;50.924;4.396;2023-03-15T06:15:05;25.60;;;12.93;;
19828;SDS011;10075;50.924;4.396;2023-03-15T06:17:33;24.63;;;12.90;;
19828;SDS011;10075;50.924;4.396;2023-03-15T06:20:00;19.33;;;12.37;;
19828;SDS011;10075;50.924;4.396;2023-03-15T06:22:27;19.67;;;11.47;;
19828;SDS011;10075;50.924;4.396;2023-03-15T06:24:54;22.60;;;12.20;;
19828;SDS011;10075;50.924;4.396;2023-03-15T06:27:21;28.70;;;14.47;;
19828;SDS011;10075;50.924;4.396;2023-03-15T06:29:50;23.80;;;12.47;;
19828;SDS011;10075;50.924;4.396;2023-03-15T06:32:18;24.17;;;12.67;;
19828;SDS011;10075;50.924;4.396;2023-03-15T06:34:45;24.57;;;12.03;;
19828;SDS011;10075;50.924;4.396;2023-03-15T06:37:12;26.07;;;12.13;;
19828;SDS011;10075;50.924;4.396;2023-03-15T06:39:40;20.23;;;11.77;;
19828;SDS011;10075;50.924;4.396;2023-03-15T06:42:08;21.73;;;12.90;;
19828;SDS011;10075;50.924;4.396;2023-03-15T06:44:37;23.50;;;12.57;;
19828;SDS011;10075;50.924;4.396;2023-03-15T06:47:06;21.80;;;12.80;;
19828;SDS011;10075;50.924;4.396;2023-03-15T06:49:33;24.47;;;12.17;;
19828;SDS011;10075;50.924;4.396;2023-03-15T06:52:01;20.87;;;11.97;;
19828;SDS011;10075;50.924;4.396;2023-03-15T06:54:28;20.53;;;11.67;;
19828;SDS011;10075;50.924;4.396;2023-03-15T06:56:55;20.03;;;12.07;;
19828;SDS011;10075;50.924;4.396;2023-03-15T06:59:22;19.27;;;12.27;;
19828;SDS011;10075;50.924;4.396;2023-03-15T07:01:49;24.53;;;12.77;;
19828;SDS011;10075;50.924;4.396;2023-03-15T07:04:18;20.47;;;11.93;;
19828;SDS011;10075;50.924;4.396;2023-03-15T07:06:45;24.00;;;13.00;;
19828;SDS011;10075;50.924;4.396;2023-03-15T07:09:12;20.43;;;12.83;;
19828;SDS011;10075;50.924;4.396;2023-03-15T07:11:39;17.60;;;12.40;;
19828;SDS011;10075;50.924;4.396;2023-03-15T07:14:06;18.80;;;12.00;;
19828;SDS011;10075;50.924;4.396;2023-03-15T07:16:33;20.63;;;10.77;;
19828;SDS011;10075;50.924;4.396;2023-03-15T07:19:00;18.27;;;10.50;;
19828;SDS011;10075;50.924;4.396;2023-03-15T07:21:29;18.80;;;9.60;;
19828;SDS011;10075;50.924;4.396;2023-03-15T07:23:56;17.00;;;8.87;;
19828;SDS011;10075;50.924;4.396;2023-03-15T07:26:23;16.17;;;9.13;;
19828;SDS011;10075;50.924;4.396;2023-03-15T07:28:50;15.87;;;9.23;;
19828;SDS011;10075;50.924;4.396;2023-03-15T07:31:17;15.63;;;8.67;;
19828;SDS011;10075;50.924;4.396;2023-03-15T07:33:44;17.63;;;8.93;;
19828;SDS011;10075;50.924;4.396;2023-03-15T07:36:11;15.10;;;7.83;;
19828;SDS011;10075;50.924;4.396;2023-03-15T07:38:40;14.90;;;7.40;;
19828;SDS011;10075;50.924;4.396;2023-03-15T07:41:07;13.93;;;7.77;;
19828;SDS011;10075;50.924;4.396;2023-03-15T07:43:34;12.50;;;7.17;;
19828;SDS011;10075;50.924;4.396;2023-03-15T07:46:01;10.80;;;7.90;;
19828;SDS011;10075;50.924;4.396;2023-03-15T07:48:28;15.00;;;7.47;;
19828;SDS011;10075;50.924;4.396;2023-03-15T07:50:55;11.13;;;7.50;;
19828;SDS011;10075;50.924;4.396;2023-03-15T07:53:23;13.50;;;7.53;;
19828;SDS011;10075;50.924;4.396;2023-03-15T07:55:52;11.80;;;6.80;;
19828;SDS011;10075;50.924;4.396;2023-03-15T07:58:19;13.47;;;7.47;;
19828;SDS011;10075;50.924;4.396;2023-03-15T08:00:46;13.70;;;7.40;;
19828;SDS011;10075;50.924;4.396;2023-03-15T08:03:13;12.50;;;6.87;;
19828;SDS011;10075;50.924;4.396;2023-03-15T08:05:40;11.87;;;6.77;;
19828;SDS011;10075;50.924;4.396;2023-03-15T08:08:07;12.83;;;7.23;;
19828;SDS011;10075;50.924;4.396;2023-03-15T08:10:34;11.60;;;7.53;;
19828;SDS011;10075;50.924;4.396;2023-03-15T08:13:02;13.03;;;7.90;;
19828;SDS011;10075;50.924;4.396;2023-03-15T08:15:29;16.53;;;7.80;;
19828;SDS011;10075;50.924;4.396;2023-03-15T08:17:56;10.10;;;6.33;;
19828;SDS011;10075;50.924;4.396;2023-03-15T08:20:24;10.97;;;6.70;;
19828;SDS011;10075;50.924;4.396;2023-03-15T08:22:51;11.80;;;6.57;;
19828;SDS011;10075;50.924;4.396;2023-03-15T08:25:19;10.57;;;6.27;;
19828;SDS011;10075;50.924;4.396;2023-03-15T08:27:48;10.33;;;6.17;;
19828;SDS011;10075;50.924;4.396;2023-03-15T08:30:18;12.67;;;6.10;;
19828;SDS011;10075;50.924;4.396;2023-03-15T08:32:46;9.97;;;6.00;;
19828;SDS011;10075;50.924;4.396;2023-03-15T08:35:15;8.17;;;4.37;;
19828;SDS011;10075;50.924;4.396;2023-03-15T08:37:44;6.23;;;4.77;;
19828;SDS011;10075;50.924;4.396;2023-03-15T08:40:12;9.83;;;4.30;;
19828;SDS011;10075;50.924;4.396;2023-03-15T08:42:39;11.17;;;4.60;;
19828;SDS011;10075;50.924;4.396;2023-03-15T08:45:07;10.13;;;4.77;;
19828;SDS011;10075;50.924;4.396;2023-03-15T08:47:37;9.13;;;4.17;;
19828;SDS011;10075;50.924;4.396;2023-03-15T08:50:05;8.53;;;4.80;;
19828;SDS011;10075;50.924;4.396;2023-03-15T08:52:34;11.67;;;5.30;;
19828;SDS011;10075;50.924;4.396;2023-03-15T08:55:01;12.17;;;4.37;;
19828;SDS011;10075;50.924;4.396;2023-03-15T08:57:29;9.90;;;5.20;;
19828;SDS011;10075;50.924;4.396;2023-03-15T08:59:57;9.17;;;4.80;;
19828;SDS011;10075;50.924;4.396;2023-03-15T09:02:24;9.33;;;4.03;;
19828;SDS011;10075;50.924;4.396;2023-03-15T09:04:52;5.87;;;3.20;;
19828;SDS011;10075;50.924;4.396;2023-03-15T09:07:19;8.17;;;3.87;;
19828;SDS011;10075;50.924;4.396;2023-03-15T09:09:46;7.87;;;4.03;;
19828;SDS011;10075;50.924;4.396;2023-03-15T09:12:14;6.13;;;3.40;;
19828;SDS011;10075;50.924;4.396;2023-03-15T09:14:41;8.97;;;3.97;;
19828;SDS011;10075;50.924;4.396;2023-03-15T09:17:09;7.37;;;3.60;;
19828;SDS011;10075;50.924;4.396;2023-03-15T09:19:36;7.37;;;4.17;;
19828;SDS011;10075;50.924;4.396;2023-03-15T09:22:04;7.40;;;4.00;;
19828;SDS011;10075;50.924;4.396;2023-03-15T09:24:32;5.67;;;3.37;;
19828;SDS011;10075;50.924;4.396;2023-03-15T09:26:59;7.03;;;3.50;;
19828;SDS011;10075;50.924;4.396;2023-03-15T09:29:25;5.20;;;2.03;;
19828;SDS011;10075;50.924;4.396;2023-03-15T09:31:53;8.57;;;2.40;;
19828;SDS011;10075;50.924;4.396;2023-03-15T09:34:20;4.90;;;1.93;;
19828;SDS011;10075;50.924;4.396;2023-03-15T09:36:47;6.73;;;3.00;;
19828;SDS011;10075;50.924;4.396;2023-03-15T09:39:18;6.73;;;2.97;;
19828;SDS011;10075;50.924;4.396;2023-03-15T09:41:46;6.40;;;3.10;;
19828;SDS011;10075;50.924;4.396;2023-03-15T09:47:12;5.63;;;2.83;;
19828;SDS011;10075;50.924;4.396;2023-03-15T09:49:49;6.80;;;3.07;;
19828;SDS011;10075;50.924;4.396;2023-03-15T09:52:27;5.10;;;2.60;;
19828;SDS011;10075;50.924;4.396;2023-03-15T09:55:02;3.93;;;2.00;;
19828;SDS011;10075;50.924;4.396;2023-03-15T09:57:36;4.30;;;2.17;;
19828;SDS011;10075;50.924;4.396;2023-03-15T10:00:10;5.53;;;2.37;;
19828;SDS011;10075;50.924;4.396;2023-03-15T10:02:41;2.60;;;1.43;;
19828;SDS011;10075;50.924;4.396;2023-03-15T10:05:14;5.47;;;1.80;;
19828;SDS011;10075;50.924;4.396;2023-03-15T10:07:45;4.07;;;1.60;;
19828;SDS011;10075;50.924;4.396;2023-03-15T10:10:21;5.47;;;1.53;;
19828;SDS011;10075;50.924;4.396;2023-03-15T10:12:55;4.77;;;2.27;;
19828;SDS011;10075;50.924;4.396;2023-03-15T10:15:32;6.67;;;2.03;;
19828;SDS011;10075;50.924;4.396;2023-03-15T10:18:13;4.57;;;2.23;;
19828;SDS011;10075;50.924;4.396;2023-03-15T10:20:53;4.60;;;2.33;;
19828;SDS011;10075;50.924;4.396;2023-03-15T10:23:29;2.80;;;2.37;;
19828;SDS011;10075;50.924;4.396;2023-03-15T10:26:07;5.30;;;2.53;;
19828;SDS011;10075;50.924;4.396;2023-03-15T10:28:40;4.67;;;2.80;;
19828;SDS011;10075;50.924;4.396;2023-03-15T10:31:10;6.13;;;2.70;;
19828;SDS011;10075;50.924;4.396;2023-03-15T10:33:39;5.17;;;2.83;;
19828;SDS011;10075;50.924;4.396;2023-03-15T10:36:11;5.23;;;3.10;;
19828;SDS011;10075;50.924;4.396;2023-03-15T10:38:41;10.90;;;3.13;;
19828;SDS011;10075;50.924;4.396;2023-03-15T10:41:11;2.83;;;2.17;;
19828;SDS011;10075;50.924;4.396;2023-03-15T10:43:39;6.90;;;3.13;;
19828;SDS011;10075;50.924;4.396;2023-03-15T10:46:07;3.73;;;1.40;;
19828;SDS011;10075;50.924;4.396;2023-03-15T10:48:36;3.67;;;1.30;;
19828;SDS011;10075;50.924;4.396;2023-03-15T10:51:06;6.33;;;2.13;;
19828;SDS011;10075;50.924;4.396;2023-03-15T10:53:46;4.50;;;2.10;;
19828;SDS011;10075;50.924;4.396;2023-03-15T10:56:20;4.20;;;2.17;;
19828;SDS011;10075;50.924;4.396;2023-03-15T10:58:51;4.37;;;2.23;;
19828;SDS011;10075;50.924;4.396;2023-03-15T11:01:24;4.90;;;2.27;;
19828;SDS011;10075;50.924;4.396;2023-03-15T11:04:00;6.57;;;2.50;;
19828;SDS011;10075;50.924;4.396;2023-03-15T11:06:43;4.40;;;2.37;;
19828;SDS011;10075;50.924;4.396;2023-03-15T11:09:13;5.80;;;2.33;;
19828;SDS011;10075;50.924;4.396;2023-03-15T11:11:58;5.43;;;1.60;;
19828;SDS011;10075;50.924;4.396;2023-03-15T11:14:31;5.17;;;2.30;;
19828;SDS011;10075;50.924;4.396;2023-03-15T11:17:00;6.03;;;2.23;;
19828;SDS011;10075;50.924;4.396;2023-03-15T11:19:28;5.70;;;3.17;;
19828;SDS011;10075;50.924;4.396;2023-03-15T11:21:58;4.13;;;2.80;;
19828;SDS011;10075;50.924;4.396;2023-03-15T11:24:27;6.50;;;3.20;;
19828;SDS011;10075;50.924;4.396;2023-03-15T11:26:58;5.47;;;3.13;;
19828;SDS011;10075;50.924;4.396;2023-03-15T11:29:27;5.97;;;2.97;;
19828;SDS011;10075;50.924;4.396;2023-03-15T11:31:57;5.00;;;2.83;;
19828;SDS011;10075;50.924;4.396;2023-03-15T11:34:30;4.83;;;2.77;;
19828;SDS011;10075;50.924;4.396;2023-03-15T11:37:04;4.73;;;2.40;;
19828;SDS011;10075;50.924;4.396;2023-03-15T11:39:38;5.43;;;2.17;;
19828;SDS011;10075;50.924;4.396;2023-03-15T11:42:12;5.63;;;2.17;;
19828;SDS011;10075;50.924;4.396;2023-03-15T11:44:44;5.00;;;2.17;;
19828;SDS011;10075;50.924;4.396;2023-03-15T11:47:15;3.93;;;2.20;;
19828;SDS011;10075;50.924;4.396;2023-03-15T11:49:50;3.60;;;1.80;;
19828;SDS011;10075;50.924;4.396;2023-03-15T11:52:19;3.27;;;1.80;;
19828;SDS011;10075;50.924;4.396;2023-03-15T11:54:48;4.67;;;1.93;;
19828;SDS011;10075;50.924;4.396;2023-03-15T11:57:40;4.30;;;1.97;;
19828;SDS011;10075;50.924;4.396;2023-03-15T12:03:23;3.57;;;1.60;;
19828;SDS011;10075;50.924;4.396;2023-03-15T12:05:59;2.17;;;1.50;;
19828;SDS011;10075;50.924;4.396;2023-03-15T12:08:42;3.63;;;1.73;;
19828;SDS011;10075;50.924;4.396;2023-03-15T12:11:13;4.43;;;1.70;;
19828;SDS011;10075;50.924;4.396;2023-03-15T12:14:05;5.13;;;1.90;;
19828;SDS011;10075;50.924;4.396;2023-03-15T12:16:56;2.87;;;1.90;;
19828;SDS011;10075;50.924;4.396;2023-03-15T12:20:06;4.27;;;2.10;;
19828;SDS011;10075;50.924;4.396;2023-03-15T12:22:39;4.20;;;1.75;;
19828;SDS011;10075;50.924;4.396;2023-03-15T12:25:10;4.10;;;1.63;;
19828;SDS011;10075;50.924;4.396;2023-03-15T12:27:42;2.77;;;1.40;;
19828;SDS011;10075;50.924;4.396;2023-03-15T12:30:20;2.90;;;1.63;;
19828;SDS011;10075;50.924;4.396;2023-03-15T12:32:49;3.07;;;1.67;;
19828;SDS011;10075;50.924;4.396;2023-03-15T12:35:19;6.13;;;1.60;;
19828;SDS011;10075;50.924;4.396;2023-03-15T12:37:48;3.10;;;1.10;;
19828;SDS011;10075;50.924;4.396;2023-03-15T12:43:14;1.90;;;0.70;;
19828;SDS011;10075;50.924;4.396;2023-03-15T12:46:01;4.57;;;1.17;;
19828;SDS011;10075;50.924;4.396;2023-03-15T12:48:29;3.60;;;1.30;;
19828;SDS011;10075;50.924;4.396;2023-03-15T12:50:58;3.47;;;1.38;;
19828;SDS011;10075;50.924;4.396;2023-03-15T12:53:43;3.10;;;1.50;;
19828;SDS011;10075;50.924;4.396;2023-03-15T12:56:25;2.40;;;1.40;;
19828;SDS011;10075;50.924;4.396;2023-03-15T12:59:14;4.25;;;1.35;;
19828;SDS011;10075;50.924;4.396;2023-03-15T13:01:59;1.73;;;1.10;;
19828;SDS011;10075;50.924;4.396;2023-03-15T13:04:27;3.67;;;1.67;;
19828;SDS011;10075;50.924;4.396;2023-03-15T13:09:53;2.72;;;1.10;;
19828;SDS011;10075;50.924;4.396;2023-03-15T13:12:33;2.45;;;1.30;;
19828;SDS011;10075;50.924;4.396;2023-03-15T13:15:06;3.43;;;1.10;;
19828;SDS011;10075;50.924;4.396;2023-03-15T13:17:41;2.77;;;1.40;;
19828;SDS011;10075;50.924;4.396;2023-03-15T13:20:22;2.60;;;1.30;;
19828;SDS011;10075;50.924;4.396;2023-03-15T13:23:05;4.63;;;1.37;;
19828;SDS011;10075;50.924;4.396;2023-03-15T13:25:45;2.83;;;1.27;;
19828;SDS011;10075;50.924;4.396;2023-03-15T13:28:28;2.03;;;1.20;;
19828;SDS011;10075;50.924;4.396;2023-03-15T13:31:01;3.07;;;1.30;;
19828;SDS011;10075;50.924;4.396;2023-03-15T13:33:38;3.83;;;1.13;;
19828;SDS011;10075;50.924;4.396;2023-03-15T13:36:10;2.72;;;1.08;;
19828;SDS011;10075;50.924;4.396;2023-03-15T13:38:40;1.90;;;1.10;;
19828;SDS011;10075;50.924;4.396;2023-03-15T13:41:18;2.78;;;0.90;;
19828;SDS011;10075;50.924;4.396;2023-03-15T13:43:46;2.83;;;0.90;;
19828;SDS011;10075;50.924;4.396;2023-03-15T13:46:16;3.63;;;1.33;;
19828;SDS011;10075;50.924;4.396;2023-03-15T13:48:48;1.95;;;0.98;;
19828;SDS011;10075;50.924;4.396;2023-03-15T13:51:17;4.07;;;1.43;;
19828;SDS011;10075;50.924;4.396;2023-03-15T13:53:47;2.15;;;0.88;;
19828;SDS011;10075;50.924;4.396;2023-03-15T13:56:17;2.25;;;0.80;;
19828;SDS011;10075;50.924;4.396;2023-03-15T13:58:46;3.97;;;1.13;;
19828;SDS011;10075;50.924;4.396;2023-03-15T14:01:16;3.67;;;1.13;;
19828;SDS011;10075;50.924;4.396;2023-03-15T14:03:46;1.70;;;0.83;;
19828;SDS011;10075;50.924;4.396;2023-03-15T14:06:20;4.17;;;0.87;;
19828;SDS011;10075;50.924;4.396;2023-03-15T14:08:50;2.20;;;0.90;;
19828;SDS011;10075;50.924;4.396;2023-03-15T14:11:31;1.63;;;1.05;;
19828;SDS011;10075;50.924;4.396;2023-03-15T14:14:01;4.28;;;1.10;;
19828;SDS011;10075;50.924;4.396;2023-03-15T14:16:45;3.93;;;1.30;;
19828;SDS011;10075;50.924;4.396;2023-03-15T14:19:17;2.08;;;1.30;;
19828;SDS011;10075;50.924;4.396;2023-03-15T14:21:46;1.83;;;0.90;;
19828;SDS011;10075;50.924;4.396;2023-03-15T14:24:20;2.67;;;1.10;;
19828;SDS011;10075;50.924;4.396;2023-03-15T14:26:52;3.38;;;0.80;;
19828;SDS011;10075;50.924;4.396;2023-03-15T14:29:24;1.80;;;0.88;;
19828;SDS011;10075;50.924;4.396;2023-03-15T14:31:57;1.60;;;0.90;;
19828;SDS011;10075;50.924;4.396;2023-03-15T14:34:31;2.35;;;1.00;;
19828;SDS011;10075;50.924;4.396;2023-03-15T14:37:01;2.27;;;1.03;;
19828;SDS011;10075;50.924;4.396;2023-03-15T14:39:36;3.17;;;1.00;;
19828;SDS011;10075;50.924;4.396;2023-03-15T14:42:05;2.72;;;1.05;;
19828;SDS011;10075;50.924;4.396;2023-03-15T14:44:32;2.58;;;0.95;;
19828;SDS011;10075;50.924;4.396;2023-03-15T14:46:59;2.65;;;1.20;;
19828;SDS011;10075;50.924;4.396;2023-03-15T14:49:27;2.95;;;1.10;;
19828;SDS011;10075;50.924;4.396;2023-03-15T14:51:57;2.42;;;1.08;;
19828;SDS011;10075;50.924;4.396;2023-03-15T14:54:26;4.67;;;1.00;;
19828;SDS011;10075;50.924;4.396;2023-03-15T14:56:54;1.97;;;0.90;;
19828;SDS011;10075;50.924;4.396;2023-03-15T14:59:21;2.17;;;0.98;;
19828;SDS011;10075;50.924;4.396;2023-03-15T15:01:49;3.20;;;1.10;;
19828;SDS011;10075;50.924;4.396;2023-03-15T15:04:18;1.90;;;0.90;;
19828;SDS011;10075;50.924;4.396;2023-03-15T15:06:45;3.35;;;0.90;;
19828;SDS011;10075;50.924;4.396;2023-03-15T15:09:18;3.78;;;1.15;;